sensor_id;sensor_type;location;lat;lon;timestamp;P1;durP1;ratioP1;P2;durP2;ratioP2
76837;SDS011;65797;47.352;8.164;2022-12-18T00:01:01;32.77;;;16.60;;
76837;SDS011;65797;47.352;8.164;2022-12-18T00:03:32;32.07;;;15.57;;
76837;SDS011;65797;47.352;8.164;2022-12-18T00:05:58;29.80;;;15.00;;
76837;SDS011;65797;47.352;8.164;2022-12-18T00:08:24;36.27;;;16.50;;
76837;SDS011;65797;47.352;8.164;2022-12-18T00:10:49;32.73;;;16.20;;
76837;SDS011;65797;47.352;8.164;2022-12-18T00:13:15;29.40;;;16.10;;
76837;SDS011;65797;47.352;8.164;2022-12-18T00:15:41;30.23;;;15.13;;
76837;SDS011;65797;47.352;8.164;2022-12-18T00:18:06;30.83;;;15.83;;
76837;SDS011;65797;47.352;8.164;2022-12-18T00:20:39;34.00;;;17.97;;
76837;SDS011;65797;47.352;8.164;2022-12-18T00:23:05;32.83;;;17.00;;
76837;SDS011;65797;47.352;8.164;2022-12-18T00:25:32;44.60;;;21.23;;
76837;SDS011;65797;47.352;8.164;2022-12-18T00:27:59;42.53;;;19.47;;
76837;SDS011;65797;47.352;8.164;2022-12-18T00:30:25;44.10;;;21.13;;
76837;SDS011;65797;47.352;8.164;2022-12-18T00:32:51;34.63;;;17.23;;
76837;SDS011;65797;47.352;8.164;2022-12-18T00:35:16;31.20;;;17.27;;
76837;SDS011;65797;47.352;8.164;2022-12-18T00:37:42;29.73;;;16.10;;
76837;SDS011;65797;47.352;8.164;2022-12-18T00:40:08;35.10;;;17.37;;
76837;SDS011;65797;47.352;8.164;2022-12-18T00:42:34;33.40;;;15.90;;
76837;SDS011;65797;47.352;8.164;2022-12-18T00:45:18;39.53;;;19.33;;
76837;SDS011;65797;47.352;8.164;2022-12-18T00:47:44;34.50;;;17.23;;
76837;SDS011;65797;47.352;8.164;2022-12-18T00:50:10;39.73;;;18.97;;
76837;SDS011;65797;47.352;8.164;2022-12-18T00:52:35;35.20;;;18.47;;
76837;SDS011;65797;47.352;8.164;2022-12-18T00:55:07;36.10;;;16.77;;
76837;SDS011;65797;47.352;8.164;2022-12-18T00:57:34;36.63;;;17.40;;
76837;SDS011;65797;47.352;8.164;2022-12-18T00:59:59;34.53;;;17.03;;
76837;SDS011;65797;47.352;8.164;2022-12-18T01:02:25;34.27;;;17.13;;
76837;SDS011;65797;47.352;8.164;2022-12-18T01:04:51;35.07;;;18.40;;
76837;SDS011;65797;47.352;8.164;2022-12-18T01:07:17;38.20;;;17.77;;
76837;SDS011;65797;47.352;8.164;2022-12-18T01:09:42;36.10;;;17.37;;
76837;SDS011;65797;47.352;8.164;2022-12-18T01:12:09;35.23;;;17.50;;
76837;SDS011;65797;47.352;8.164;2022-12-18T01:14:36;35.03;;;17.27;;
76837;SDS011;65797;47.352;8.164;2022-12-18T01:17:02;38.43;;;18.73;;
76837;SDS011;65797;47.352;8.164;2022-12-18T01:19:28;35.73;;;17.07;;
76837;SDS011;65797;47.352;8.164;2022-12-18T01:21:54;37.67;;;18.80;;
76837;SDS011;65797;47.352;8.164;2022-12-18T01:24:20;37.50;;;18.47;;
76837;SDS011;65797;47.352;8.164;2022-12-18T01:26:46;32.00;;;15.80;;
76837;SDS011;65797;47.352;8.164;2022-12-18T01:29:11;44.97;;;18.70;;
76837;SDS011;65797;47.352;8.164;2022-12-18T01:31:37;37.30;;;17.43;;
76837;SDS011;65797;47.352;8.164;2022-12-18T01:34:03;40.03;;;18.20;;
76837;SDS011;65797;47.352;8.164;2022-12-18T01:36:33;35.80;;;17.67;;
76837;SDS011;65797;47.352;8.164;2022-12-18T01:39:02;30.40;;;16.20;;
76837;SDS011;65797;47.352;8.164;2022-12-18T01:41:31;38.57;;;17.97;;
76837;SDS011;65797;47.352;8.164;2022-12-18T01:49:53;37.77;;;17.70;;
76837;SDS011;65797;47.352;8.164;2022-12-18T01:52:20;35.20;;;17.30;;
76837;SDS011;65797;47.352;8.164;2022-12-18T01:54:49;35.50;;;17.07;;
76837;SDS011;65797;47.352;8.164;2022-12-18T01:57:16;41.77;;;17.83;;
76837;SDS011;65797;47.352;8.164;2022-12-18T01:59:42;41.17;;;20.07;;
76837;SDS011;65797;47.352;8.164;2022-12-18T02:02:09;36.10;;;17.00;;
76837;SDS011;65797;47.352;8.164;2022-12-18T02:04:35;39.10;;;18.03;;
76837;SDS011;65797;47.352;8.164;2022-12-18T02:12:29;41.07;;;20.03;;
76837;SDS011;65797;47.352;8.164;2022-12-18T02:15:07;35.90;;;16.23;;
76837;SDS011;65797;47.352;8.164;2022-12-18T02:17:53;41.23;;;18.10;;
76837;SDS011;65797;47.352;8.164;2022-12-18T02:20:36;36.50;;;16.97;;
76837;SDS011;65797;47.352;8.164;2022-12-18T02:23:24;40.03;;;17.60;;
76837;SDS011;65797;47.352;8.164;2022-12-18T02:28:55;42.40;;;17.67;;
76837;SDS011;65797;47.352;8.164;2022-12-18T02:31:27;44.87;;;17.63;;
76837;SDS011;65797;47.352;8.164;2022-12-18T02:33:56;40.43;;;15.80;;
76837;SDS011;65797;47.352;8.164;2022-12-18T02:36:26;38.83;;;17.50;;
76837;SDS011;65797;47.352;8.164;2022-12-18T02:38:54;35.53;;;16.00;;
76837;SDS011;65797;47.352;8.164;2022-12-18T02:41:20;40.03;;;17.27;;
76837;SDS011;65797;47.352;8.164;2022-12-18T02:43:53;40.60;;;15.97;;
76837;SDS011;65797;47.352;8.164;2022-12-18T02:48:57;33.93;;;15.80;;
76837;SDS011;65797;47.352;8.164;2022-12-18T02:57:15;38.40;;;16.60;;
76837;SDS011;65797;47.352;8.164;2022-12-18T03:00:11;38.07;;;16.23;;
76837;SDS011;65797;47.352;8.164;2022-12-18T03:02:43;35.27;;;16.50;;
76837;SDS011;65797;47.352;8.164;2022-12-18T03:05:13;36.83;;;16.50;;
76837;SDS011;65797;47.352;8.164;2022-12-18T03:08:03;40.77;;;16.60;;
76837;SDS011;65797;47.352;8.164;2022-12-18T03:10:34;37.60;;;15.57;;
76837;SDS011;65797;47.352;8.164;2022-12-18T03:13:14;36.30;;;15.27;;
76837;SDS011;65797;47.352;8.164;2022-12-18T03:15:46;39.90;;;17.30;;
76837;SDS011;65797;47.352;8.164;2022-12-18T03:18:19;33.80;;;15.23;;
76837;SDS011;65797;47.352;8.164;2022-12-18T03:20:56;40.03;;;16.13;;
76837;SDS011;65797;47.352;8.164;2022-12-18T03:23:25;35.70;;;14.47;;
76837;SDS011;65797;47.352;8.164;2022-12-18T03:25:56;33.20;;;14.60;;
76837;SDS011;65797;47.352;8.164;2022-12-18T03:28:25;34.23;;;16.20;;
76837;SDS011;65797;47.352;8.164;2022-12-18T03:30:55;36.77;;;15.53;;
76837;SDS011;65797;47.352;8.164;2022-12-18T03:33:31;39.07;;;15.30;;
76837;SDS011;65797;47.352;8.164;2022-12-18T03:36:03;32.07;;;13.93;;
76837;SDS011;65797;47.352;8.164;2022-12-18T03:38:29;35.70;;;15.10;;
76837;SDS011;65797;47.352;8.164;2022-12-18T03:44:12;41.97;;;17.00;;
76837;SDS011;65797;47.352;8.164;2022-12-18T03:50:03;40.27;;;15.23;;
76837;SDS011;65797;47.352;8.164;2022-12-18T03:55:03;32.63;;;13.63;;
76837;SDS011;65797;47.352;8.164;2022-12-18T03:57:32;35.40;;;13.90;;
76837;SDS011;65797;47.352;8.164;2022-12-18T04:00:00;37.33;;;15.67;;
76837;SDS011;65797;47.352;8.164;2022-12-18T04:02:35;37.27;;;15.47;;
76837;SDS011;65797;47.352;8.164;2022-12-18T04:05:05;33.03;;;14.17;;
76837;SDS011;65797;47.352;8.164;2022-12-18T04:07:33;31.73;;;13.70;;
76837;SDS011;65797;47.352;8.164;2022-12-18T04:09:59;38.67;;;15.30;;
76837;SDS011;65797;47.352;8.164;2022-12-18T04:12:28;33.70;;;13.43;;
76837;SDS011;65797;47.352;8.164;2022-12-18T04:14:55;35.03;;;15.20;;
76837;SDS011;65797;47.352;8.164;2022-12-18T04:17:21;33.03;;;14.63;;
76837;SDS011;65797;47.352;8.164;2022-12-18T04:19:47;34.07;;;13.63;;
76837;SDS011;65797;47.352;8.164;2022-12-18T04:22:13;31.80;;;13.40;;
76837;SDS011;65797;47.352;8.164;2022-12-18T04:24:39;29.07;;;12.60;;
76837;SDS011;65797;47.352;8.164;2022-12-18T04:27:04;29.27;;;13.13;;
76837;SDS011;65797;47.352;8.164;2022-12-18T04:29:30;34.17;;;13.63;;
76837;SDS011;65797;47.352;8.164;2022-12-18T04:31:56;27.67;;;12.70;;
76837;SDS011;65797;47.352;8.164;2022-12-18T04:34:21;28.77;;;13.20;;
76837;SDS011;65797;47.352;8.164;2022-12-18T04:36:47;29.53;;;13.03;;
76837;SDS011;65797;47.352;8.164;2022-12-18T04:39:13;32.20;;;12.77;;
76837;SDS011;65797;47.352;8.164;2022-12-18T04:41:42;30.10;;;12.67;;
76837;SDS011;65797;47.352;8.164;2022-12-18T04:44:07;29.50;;;13.03;;
76837;SDS011;65797;47.352;8.164;2022-12-18T04:46:33;26.50;;;11.57;;
76837;SDS011;65797;47.352;8.164;2022-12-18T04:48:59;31.63;;;13.93;;
76837;SDS011;65797;47.352;8.164;2022-12-18T04:51:24;31.57;;;13.90;;
76837;SDS011;65797;47.352;8.164;2022-12-18T04:53:50;35.67;;;13.97;;
76837;SDS011;65797;47.352;8.164;2022-12-18T04:56:15;30.27;;;13.23;;
76837;SDS011;65797;47.352;8.164;2022-12-18T04:58:42;26.50;;;11.57;;
76837;SDS011;65797;47.352;8.164;2022-12-18T05:01:09;29.40;;;12.70;;
76837;SDS011;65797;47.352;8.164;2022-12-18T05:03:36;32.10;;;13.43;;
76837;SDS011;65797;47.352;8.164;2022-12-18T05:06:02;38.83;;;13.30;;
76837;SDS011;65797;47.352;8.164;2022-12-18T05:08:29;29.30;;;14.17;;
76837;SDS011;65797;47.352;8.164;2022-12-18T05:11:02;29.57;;;13.10;;
76837;SDS011;65797;47.352;8.164;2022-12-18T05:13:29;34.47;;;14.90;;
76837;SDS011;65797;47.352;8.164;2022-12-18T05:15:55;34.47;;;13.50;;
76837;SDS011;65797;47.352;8.164;2022-12-18T05:18:22;32.27;;;13.20;;
76837;SDS011;65797;47.352;8.164;2022-12-18T05:20:48;25.70;;;12.97;;
76837;SDS011;65797;47.352;8.164;2022-12-18T05:23:15;29.53;;;13.17;;
76837;SDS011;65797;47.352;8.164;2022-12-18T05:25:41;27.40;;;12.23;;
76837;SDS011;65797;47.352;8.164;2022-12-18T05:28:07;33.00;;;12.90;;
76837;SDS011;65797;47.352;8.164;2022-12-18T05:30:32;42.30;;;14.47;;
76837;SDS011;65797;47.352;8.164;2022-12-18T05:32:58;34.57;;;14.43;;
76837;SDS011;65797;47.352;8.164;2022-12-18T05:35:24;32.73;;;13.53;;
76837;SDS011;65797;47.352;8.164;2022-12-18T05:37:50;30.83;;;14.00;;
76837;SDS011;65797;47.352;8.164;2022-12-18T05:40:15;36.77;;;13.40;;
76837;SDS011;65797;47.352;8.164;2022-12-18T05:42:41;30.50;;;13.37;;
76837;SDS011;65797;47.352;8.164;2022-12-18T05:45:07;34.93;;;14.20;;
76837;SDS011;65797;47.352;8.164;2022-12-18T05:47:33;31.20;;;12.90;;
76837;SDS011;65797;47.352;8.164;2022-12-18T05:49:58;27.03;;;12.27;;
76837;SDS011;65797;47.352;8.164;2022-12-18T05:52:24;23.77;;;11.60;;
76837;SDS011;65797;47.352;8.164;2022-12-18T05:54:50;26.77;;;11.20;;
76837;SDS011;65797;47.352;8.164;2022-12-18T05:57:15;28.30;;;12.27;;
76837;SDS011;65797;47.352;8.164;2022-12-18T05:59:41;26.57;;;11.33;;
76837;SDS011;65797;47.352;8.164;2022-12-18T06:02:07;31.03;;;12.70;;
76837;SDS011;65797;47.352;8.164;2022-12-18T06:04:33;33.77;;;12.70;;
76837;SDS011;65797;47.352;8.164;2022-12-18T06:06:58;30.60;;;13.40;;
76837;SDS011;65797;47.352;8.164;2022-12-18T06:09:24;28.57;;;12.93;;
76837;SDS011;65797;47.352;8.164;2022-12-18T06:11:51;27.87;;;12.10;;
76837;SDS011;65797;47.352;8.164;2022-12-18T06:14:17;27.93;;;11.17;;
76837;SDS011;65797;47.352;8.164;2022-12-18T06:16:43;29.33;;;13.43;;
76837;SDS011;65797;47.352;8.164;2022-12-18T06:19:13;30.97;;;13.00;;
76837;SDS011;65797;47.352;8.164;2022-12-18T06:21:41;34.47;;;13.80;;
76837;SDS011;65797;47.352;8.164;2022-12-18T06:24:06;28.60;;;13.33;;
76837;SDS011;65797;47.352;8.164;2022-12-18T06:26:32;35.80;;;13.80;;
76837;SDS011;65797;47.352;8.164;2022-12-18T06:28:58;35.47;;;13.90;;
76837;SDS011;65797;47.352;8.164;2022-12-18T06:31:24;28.50;;;13.77;;
76837;SDS011;65797;47.352;8.164;2022-12-18T06:33:50;26.67;;;12.97;;
76837;SDS011;65797;47.352;8.164;2022-12-18T06:36:16;35.43;;;14.50;;
76837;SDS011;65797;47.352;8.164;2022-12-18T06:38:42;32.03;;;13.57;;
76837;SDS011;65797;47.352;8.164;2022-12-18T06:41:16;29.20;;;13.10;;
76837;SDS011;65797;47.352;8.164;2022-12-18T06:43:43;28.03;;;13.47;;
76837;SDS011;65797;47.352;8.164;2022-12-18T06:46:09;28.10;;;13.00;;
76837;SDS011;65797;47.352;8.164;2022-12-18T06:48:36;30.57;;;13.20;;
76837;SDS011;65797;47.352;8.164;2022-12-18T06:51:01;24.63;;;12.37;;
76837;SDS011;65797;47.352;8.164;2022-12-18T06:53:27;33.67;;;14.03;;
76837;SDS011;65797;47.352;8.164;2022-12-18T06:56:03;31.87;;;13.60;;
76837;SDS011;65797;47.352;8.164;2022-12-18T06:58:30;28.87;;;14.10;;
76837;SDS011;65797;47.352;8.164;2022-12-18T07:01:00;29.83;;;13.07;;
76837;SDS011;65797;47.352;8.164;2022-12-18T07:03:26;34.00;;;14.83;;
76837;SDS011;65797;47.352;8.164;2022-12-18T07:05:52;31.63;;;13.87;;
76837;SDS011;65797;47.352;8.164;2022-12-18T07:08:17;27.80;;;12.23;;
76837;SDS011;65797;47.352;8.164;2022-12-18T07:10:44;29.37;;;13.17;;
76837;SDS011;65797;47.352;8.164;2022-12-18T07:13:10;29.67;;;13.10;;
76837;SDS011;65797;47.352;8.164;2022-12-18T07:15:36;29.70;;;12.80;;
76837;SDS011;65797;47.352;8.164;2022-12-18T07:18:01;33.00;;;13.57;;
76837;SDS011;65797;47.352;8.164;2022-12-18T07:20:27;31.20;;;14.20;;
76837;SDS011;65797;47.352;8.164;2022-12-18T07:22:53;29.97;;;13.40;;
76837;SDS011;65797;47.352;8.164;2022-12-18T07:25:18;33.00;;;14.70;;
76837;SDS011;65797;47.352;8.164;2022-12-18T07:27:44;30.70;;;13.83;;
76837;SDS011;65797;47.352;8.164;2022-12-18T07:30:10;26.97;;;11.73;;
76837;SDS011;65797;47.352;8.164;2022-12-18T07:32:36;27.17;;;11.97;;
76837;SDS011;65797;47.352;8.164;2022-12-18T07:35:01;31.47;;;13.10;;
76837;SDS011;65797;47.352;8.164;2022-12-18T07:37:27;35.17;;;13.37;;
76837;SDS011;65797;47.352;8.164;2022-12-18T07:39:53;27.90;;;13.57;;
76837;SDS011;65797;47.352;8.164;2022-12-18T07:42:18;28.00;;;12.23;;
76837;SDS011;65797;47.352;8.164;2022-12-18T07:44:56;29.60;;;12.77;;
76837;SDS011;65797;47.352;8.164;2022-12-18T07:47:22;30.90;;;14.13;;
76837;SDS011;65797;47.352;8.164;2022-12-18T07:49:48;29.30;;;12.33;;
76837;SDS011;65797;47.352;8.164;2022-12-18T07:52:14;30.50;;;13.90;;
76837;SDS011;65797;47.352;8.164;2022-12-18T07:54:40;28.00;;;12.50;;
76837;SDS011;65797;47.352;8.164;2022-12-18T07:57:06;31.03;;;13.80;;
76837;SDS011;65797;47.352;8.164;2022-12-18T07:59:32;31.60;;;13.50;;
76837;SDS011;65797;47.352;8.164;2022-12-18T08:01:58;27.60;;;12.00;;
76837;SDS011;65797;47.352;8.164;2022-12-18T08:04:23;24.20;;;11.90;;
76837;SDS011;65797;47.352;8.164;2022-12-18T08:06:50;29.47;;;13.27;;
76837;SDS011;65797;47.352;8.164;2022-12-18T08:09:15;31.83;;;12.80;;
76837;SDS011;65797;47.352;8.164;2022-12-18T08:11:41;26.30;;;11.70;;
76837;SDS011;65797;47.352;8.164;2022-12-18T08:14:07;28.63;;;12.17;;
76837;SDS011;65797;47.352;8.164;2022-12-18T08:16:33;29.57;;;13.53;;
76837;SDS011;65797;47.352;8.164;2022-12-18T08:18:59;27.87;;;12.90;;
76837;SDS011;65797;47.352;8.164;2022-12-18T08:21:26;24.93;;;11.37;;
76837;SDS011;65797;47.352;8.164;2022-12-18T08:23:54;29.20;;;12.50;;
76837;SDS011;65797;47.352;8.164;2022-12-18T08:26:21;26.03;;;12.47;;
76837;SDS011;65797;47.352;8.164;2022-12-18T08:28:48;23.73;;;11.27;;
76837;SDS011;65797;47.352;8.164;2022-12-18T08:31:14;32.57;;;13.17;;
76837;SDS011;65797;47.352;8.164;2022-12-18T08:33:40;28.37;;;12.20;;
76837;SDS011;65797;47.352;8.164;2022-12-18T08:36:08;23.90;;;12.37;;
76837;SDS011;65797;47.352;8.164;2022-12-18T08:38:34;22.97;;;11.80;;
76837;SDS011;65797;47.352;8.164;2022-12-18T08:41:00;23.93;;;11.30;;
76837;SDS011;65797;47.352;8.164;2022-12-18T08:43:27;23.40;;;10.87;;
76837;SDS011;65797;47.352;8.164;2022-12-18T08:46:12;28.20;;;12.00;;
76837;SDS011;65797;47.352;8.164;2022-12-18T08:48:40;25.23;;;11.73;;
76837;SDS011;65797;47.352;8.164;2022-12-18T08:51:06;23.67;;;12.40;;
76837;SDS011;65797;47.352;8.164;2022-12-18T08:53:31;30.17;;;12.07;;
76837;SDS011;65797;47.352;8.164;2022-12-18T08:55:57;23.53;;;11.47;;
76837;SDS011;65797;47.352;8.164;2022-12-18T08:58:23;24.83;;;11.33;;
76837;SDS011;65797;47.352;8.164;2022-12-18T09:00:48;24.47;;;11.10;;
76837;SDS011;65797;47.352;8.164;2022-12-18T09:03:18;33.90;;;12.37;;
76837;SDS011;65797;47.352;8.164;2022-12-18T09:05:47;20.40;;;10.20;;
76837;SDS011;65797;47.352;8.164;2022-12-18T09:08:13;24.33;;;11.13;;
76837;SDS011;65797;47.352;8.164;2022-12-18T09:10:47;24.90;;;11.50;;
76837;SDS011;65797;47.352;8.164;2022-12-18T09:13:14;25.60;;;11.73;;
76837;SDS011;65797;47.352;8.164;2022-12-18T09:15:44;23.40;;;10.90;;
76837;SDS011;65797;47.352;8.164;2022-12-18T09:18:12;19.53;;;10.53;;
76837;SDS011;65797;47.352;8.164;2022-12-18T09:20:39;20.40;;;9.77;;
76837;SDS011;65797;47.352;8.164;2022-12-18T09:23:05;23.63;;;10.60;;
76837;SDS011;65797;47.352;8.164;2022-12-18T09:25:31;27.67;;;11.97;;
76837;SDS011;65797;47.352;8.164;2022-12-18T09:28:10;24.03;;;11.70;;
76837;SDS011;65797;47.352;8.164;2022-12-18T09:30:40;24.27;;;10.97;;
76837;SDS011;65797;47.352;8.164;2022-12-18T09:33:08;28.67;;;11.57;;
76837;SDS011;65797;47.352;8.164;2022-12-18T09:35:37;23.00;;;11.67;;
76837;SDS011;65797;47.352;8.164;2022-12-18T09:38:04;23.77;;;11.30;;
76837;SDS011;65797;47.352;8.164;2022-12-18T09:40:35;24.87;;;11.80;;
76837;SDS011;65797;47.352;8.164;2022-12-18T09:43:17;21.87;;;11.20;;
76837;SDS011;65797;47.352;8.164;2022-12-18T09:45:49;25.07;;;11.77;;
76837;SDS011;65797;47.352;8.164;2022-12-18T09:48:23;24.93;;;12.93;;
76837;SDS011;65797;47.352;8.164;2022-12-18T09:50:55;23.10;;;11.93;;
76837;SDS011;65797;47.352;8.164;2022-12-18T09:53:26;26.27;;;11.17;;
76837;SDS011;65797;47.352;8.164;2022-12-18T09:55:56;26.80;;;11.10;;
76837;SDS011;65797;47.352;8.164;2022-12-18T10:01:01;26.40;;;12.37;;
76837;SDS011;65797;47.352;8.164;2022-12-18T10:03:26;24.70;;;11.20;;
76837;SDS011;65797;47.352;8.164;2022-12-18T10:08:33;29.80;;;13.17;;
76837;SDS011;65797;47.352;8.164;2022-12-18T10:17:25;27.60;;;11.60;;
76837;SDS011;65797;47.352;8.164;2022-12-18T10:22:39;22.90;;;11.17;;
76837;SDS011;65797;47.352;8.164;2022-12-18T10:25:29;26.10;;;11.70;;
76837;SDS011;65797;47.352;8.164;2022-12-18T10:28:10;26.77;;;10.73;;
76837;SDS011;65797;47.352;8.164;2022-12-18T10:30:38;24.37;;;11.73;;
76837;SDS011;65797;47.352;8.164;2022-12-18T10:33:05;27.80;;;11.40;;
76837;SDS011;65797;47.352;8.164;2022-12-18T10:35:32;24.27;;;11.50;;
76837;SDS011;65797;47.352;8.164;2022-12-18T10:38:00;24.17;;;10.10;;
76837;SDS011;65797;47.352;8.164;2022-12-18T10:40:25;24.37;;;11.33;;
76837;SDS011;65797;47.352;8.164;2022-12-18T10:45:30;22.83;;;11.60;;
76837;SDS011;65797;47.352;8.164;2022-12-18T10:47:56;22.77;;;11.23;;
76837;SDS011;65797;47.352;8.164;2022-12-18T10:52:55;24.53;;;10.90;;
76837;SDS011;65797;47.352;8.164;2022-12-18T10:55:23;25.13;;;11.53;;
76837;SDS011;65797;47.352;8.164;2022-12-18T10:58:01;24.70;;;11.27;;
76837;SDS011;65797;47.352;8.164;2022-12-18T11:00:42;24.93;;;10.53;;
76837;SDS011;65797;47.352;8.164;2022-12-18T11:06:07;22.40;;;10.43;;
76837;SDS011;65797;47.352;8.164;2022-12-18T11:08:37;24.93;;;12.63;;
76837;SDS011;65797;47.352;8.164;2022-12-18T11:11:04;26.30;;;10.20;;
76837;SDS011;65797;47.352;8.164;2022-12-18T11:13:39;26.53;;;10.93;;
76837;SDS011;65797;47.352;8.164;2022-12-18T11:16:05;20.77;;;10.40;;
76837;SDS011;65797;47.352;8.164;2022-12-18T11:18:34;25.40;;;11.40;;
76837;SDS011;65797;47.352;8.164;2022-12-18T11:23:34;21.80;;;11.17;;
76837;SDS011;65797;47.352;8.164;2022-12-18T11:26:03;22.80;;;10.70;;
76837;SDS011;65797;47.352;8.164;2022-12-18T11:31:23;19.93;;;9.70;;
76837;SDS011;65797;47.352;8.164;2022-12-18T11:34:00;24.50;;;10.50;;
76837;SDS011;65797;47.352;8.164;2022-12-18T11:36:40;21.73;;;10.50;;
76837;SDS011;65797;47.352;8.164;2022-12-18T11:39:12;22.57;;;10.50;;
76837;SDS011;65797;47.352;8.164;2022-12-18T11:41:59;26.73;;;10.83;;
76837;SDS011;65797;47.352;8.164;2022-12-18T11:44:48;27.03;;;10.80;;
76837;SDS011;65797;47.352;8.164;2022-12-18T11:49:55;27.17;;;12.80;;
76837;SDS011;65797;47.352;8.164;2022-12-18T11:52:30;23.90;;;10.57;;
76837;SDS011;65797;47.352;8.164;2022-12-18T11:55:04;24.57;;;11.03;;
76837;SDS011;65797;47.352;8.164;2022-12-18T11:57:42;19.50;;;9.93;;
76837;SDS011;65797;47.352;8.164;2022-12-18T12:00:18;22.83;;;10.43;;
76837;SDS011;65797;47.352;8.164;2022-12-18T12:16:29;26.33;;;10.43;;
76837;SDS011;65797;47.352;8.164;2022-12-18T12:19:07;20.83;;;10.30;;
76837;SDS011;65797;47.352;8.164;2022-12-18T12:35:23;21.73;;;10.10;;
76837;SDS011;65797;47.352;8.164;2022-12-18T12:38:10;17.47;;;8.63;;
76837;SDS011;65797;47.352;8.164;2022-12-18T12:40:59;23.03;;;9.90;;
76837;SDS011;65797;47.352;8.164;2022-12-18T12:43:38;23.73;;;11.30;;
76837;SDS011;65797;47.352;8.164;2022-12-18T12:46:09;21.67;;;10.40;;
76837;SDS011;65797;47.352;8.164;2022-12-18T12:51:14;25.17;;;10.60;;
76837;SDS011;65797;47.352;8.164;2022-12-18T12:53:46;21.37;;;8.70;;
76837;SDS011;65797;47.352;8.164;2022-12-18T12:56:14;21.03;;;10.33;;
76837;SDS011;65797;47.352;8.164;2022-12-18T13:07:00;24.00;;;9.50;;
76837;SDS011;65797;47.352;8.164;2022-12-18T13:12:53;20.83;;;10.37;;
76837;SDS011;65797;47.352;8.164;2022-12-18T13:18:12;21.43;;;9.33;;
76837;SDS011;65797;47.352;8.164;2022-12-18T13:20:45;23.70;;;11.17;;
76837;SDS011;65797;47.352;8.164;2022-12-18T13:25:49;21.30;;;10.63;;
76837;SDS011;65797;47.352;8.164;2022-12-18T13:40:57;21.10;;;10.90;;
76837;SDS011;65797;47.352;8.164;2022-12-18T13:51:42;21.70;;;10.80;;
76837;SDS011;65797;47.352;8.164;2022-12-18T13:54:18;26.13;;;11.23;;
76837;SDS011;65797;47.352;8.164;2022-12-18T13:56:46;18.03;;;9.50;;
76837;SDS011;65797;47.352;8.164;2022-12-18T13:59:17;23.47;;;10.23;;
76837;SDS011;65797;47.352;8.164;2022-12-18T14:01:58;24.30;;;10.90;;
76837;SDS011;65797;47.352;8.164;2022-12-18T14:04:27;17.40;;;9.03;;
76837;SDS011;65797;47.352;8.164;2022-12-18T14:06:56;22.10;;;9.70;;
76837;SDS011;65797;47.352;8.164;2022-12-18T14:09:30;19.50;;;9.90;;
76837;SDS011;65797;47.352;8.164;2022-12-18T14:12:00;28.90;;;12.50;;
76837;SDS011;65797;47.352;8.164;2022-12-18T14:14:46;21.93;;;9.57;;
76837;SDS011;65797;47.352;8.164;2022-12-18T14:17:14;28.37;;;10.40;;
76837;SDS011;65797;47.352;8.164;2022-12-18T14:19:41;23.43;;;10.87;;
76837;SDS011;65797;47.352;8.164;2022-12-18T14:22:13;27.80;;;12.60;;
76837;SDS011;65797;47.352;8.164;2022-12-18T14:24:41;19.67;;;10.20;;
76837;SDS011;65797;47.352;8.164;2022-12-18T14:27:24;26.37;;;11.37;;
76837;SDS011;65797;47.352;8.164;2022-12-18T14:29:50;24.67;;;10.40;;
76837;SDS011;65797;47.352;8.164;2022-12-18T14:32:17;20.33;;;11.20;;
76837;SDS011;65797;47.352;8.164;2022-12-18T14:34:45;26.40;;;11.50;;
76837;SDS011;65797;47.352;8.164;2022-12-18T14:37:13;28.70;;;11.27;;
76837;SDS011;65797;47.352;8.164;2022-12-18T14:39:51;21.63;;;11.50;;
76837;SDS011;65797;47.352;8.164;2022-12-18T14:42:40;33.27;;;13.47;;
76837;SDS011;65797;47.352;8.164;2022-12-18T14:48:25;22.53;;;10.37;;
76837;SDS011;65797;47.352;8.164;2022-12-18T14:51:05;22.53;;;10.60;;
76837;SDS011;65797;47.352;8.164;2022-12-18T14:53:40;21.10;;;10.57;;
76837;SDS011;65797;47.352;8.164;2022-12-18T14:56:21;28.50;;;11.53;;
76837;SDS011;65797;47.352;8.164;2022-12-18T14:58:48;24.37;;;11.03;;
76837;SDS011;65797;47.352;8.164;2022-12-18T15:01:35;29.17;;;10.83;;
76837;SDS011;65797;47.352;8.164;2022-12-18T15:04:03;20.20;;;10.13;;
76837;SDS011;65797;47.352;8.164;2022-12-18T15:06:34;26.47;;;11.87;;
76837;SDS011;65797;47.352;8.164;2022-12-18T15:09:05;25.17;;;12.00;;
76837;SDS011;65797;47.352;8.164;2022-12-18T15:11:54;25.80;;;10.93;;
76837;SDS011;65797;47.352;8.164;2022-12-18T15:14:23;26.20;;;11.60;;
76837;SDS011;65797;47.352;8.164;2022-12-18T15:17:40;24.57;;;10.57;;
76837;SDS011;65797;47.352;8.164;2022-12-18T15:20:00;29.47;;;11.13;;
76837;SDS011;65797;47.352;8.164;2022-12-18T15:22:33;22.80;;;10.90;;
76837;SDS011;65797;47.352;8.164;2022-12-18T15:25:00;23.80;;;10.83;;
76837;SDS011;65797;47.352;8.164;2022-12-18T15:32:38;24.37;;;11.00;;
76837;SDS011;65797;47.352;8.164;2022-12-18T15:37:40;25.13;;;12.37;;
76837;SDS011;65797;47.352;8.164;2022-12-18T15:40:08;25.83;;;12.00;;
76837;SDS011;65797;47.352;8.164;2022-12-18T15:42:37;26.50;;;12.00;;
76837;SDS011;65797;47.352;8.164;2022-12-18T15:45:21;24.20;;;10.57;;
76837;SDS011;65797;47.352;8.164;2022-12-18T15:47:47;28.67;;;11.97;;
76837;SDS011;65797;47.352;8.164;2022-12-18T15:50:13;28.70;;;11.30;;
76837;SDS011;65797;47.352;8.164;2022-12-18T15:52:39;32.43;;;11.50;;
76837;SDS011;65797;47.352;8.164;2022-12-18T15:55:15;26.33;;;11.13;;
76837;SDS011;65797;47.352;8.164;2022-12-18T15:58:01;26.50;;;11.50;;
76837;SDS011;65797;47.352;8.164;2022-12-18T16:00:26;30.77;;;13.10;;
76837;SDS011;65797;47.352;8.164;2022-12-18T16:02:52;25.03;;;12.07;;
76837;SDS011;65797;47.352;8.164;2022-12-18T16:05:24;31.73;;;13.13;;
76837;SDS011;65797;47.352;8.164;2022-12-18T16:07:50;26.33;;;12.47;;
76837;SDS011;65797;47.352;8.164;2022-12-18T16:10:16;27.13;;;11.27;;
76837;SDS011;65797;47.352;8.164;2022-12-18T16:12:42;25.43;;;10.77;;
76837;SDS011;65797;47.352;8.164;2022-12-18T16:15:09;27.53;;;10.33;;
76837;SDS011;65797;47.352;8.164;2022-12-18T16:17:38;25.47;;;11.97;;
76837;SDS011;65797;47.352;8.164;2022-12-18T16:20:05;20.63;;;9.90;;
76837;SDS011;65797;47.352;8.164;2022-12-18T16:22:36;23.60;;;10.80;;
76837;SDS011;65797;47.352;8.164;2022-12-18T16:25:02;22.50;;;11.60;;
76837;SDS011;65797;47.352;8.164;2022-12-18T16:27:28;26.80;;;11.03;;
76837;SDS011;65797;47.352;8.164;2022-12-18T16:29:53;23.80;;;11.20;;
76837;SDS011;65797;47.352;8.164;2022-12-18T16:32:20;23.00;;;10.70;;
76837;SDS011;65797;47.352;8.164;2022-12-18T16:34:46;24.50;;;10.57;;
76837;SDS011;65797;47.352;8.164;2022-12-18T16:37:13;23.73;;;11.00;;
76837;SDS011;65797;47.352;8.164;2022-12-18T16:39:40;24.27;;;10.60;;
76837;SDS011;65797;47.352;8.164;2022-12-18T16:42:09;26.07;;;11.60;;
76837;SDS011;65797;47.352;8.164;2022-12-18T16:44:39;28.80;;;14.00;;
76837;SDS011;65797;47.352;8.164;2022-12-18T16:47:05;25.00;;;10.70;;
76837;SDS011;65797;47.352;8.164;2022-12-18T16:49:31;27.80;;;11.60;;
76837;SDS011;65797;47.352;8.164;2022-12-18T16:51:57;27.37;;;12.40;;
76837;SDS011;65797;47.352;8.164;2022-12-18T16:54:26;25.10;;;11.90;;